Time;durP1;ratioP1;P1;durP2;ratioP2;P2;SDS_P1;SDS_P2;PMS_P1;PMS_P2;Temp;Humidity;BMP_temperature;BMP_pressure;BME280_temperature;BME280_humidity;BME280_pressure;Samples;Min_cycle;Max_cycle;Signal;HPM_P1;HPM_P2
2021/04/24 00:01:32;;;;;;;10.45;5.20;;;;;;;6.33;58.60;96969.66;5032864;28;20049;-64
2021/04/24 00:03:58;;;;;;;9.15;5.43;;;;;;;6.33;58.03;96968.84;5032418;28;20403;-65
2021/04/24 00:06:26;;;;;;;9.07;4.88;;;;;;;6.34;57.38;96976.66;5032435;28;20045;-65
2021/04/24 00:08:52;;;;;;;15.93;5.18;;;;;;;6.36;57.66;96969.09;5032624;28;20045;-64
2021/04/24 00:11:18;;;;;;;15.75;6.03;;;;;;;6.35;58.54;96967.47;5031853;28;20510;-65
2021/04/24 00:13:44;;;;;;;11.73;5.45;;;;;;;6.35;57.33;96962.06;5032752;28;20649;-65
2021/04/24 00:16:10;;;;;;;14.13;5.53;;;;;;;6.31;58.33;96960.97;5031500;28;20432;-65
2021/04/24 00:18:36;;;;;;;12.07;5.35;;;;;;;6.25;58.09;96962.91;5033106;28;20046;-65
2021/04/24 00:21:03;;;;;;;10.18;5.00;;;;;;;6.19;57.75;96963.19;5031151;28;20093;-65
2021/04/24 00:23:30;;;;;;;12.32;4.53;;;;;;;6.19;58.77;96958.59;5033073;28;20056;-64
2021/04/24 00:25:56;;;;;;;12.98;4.93;;;;;;;6.21;57.95;96950.19;5031469;28;20061;-64
2021/04/24 00:28:22;;;;;;;14.23;4.90;;;;;;;6.18;58.81;96954.28;5033086;28;20057;-65
2021/04/24 00:30:48;;;;;;;10.73;4.95;;;;;;;6.16;57.98;96947.50;5032065;28;20411;-65
2021/04/24 00:33:14;;;;;;;10.15;4.80;;;;;;;6.16;58.01;96950.22;5031722;28;20049;-65
2021/04/24 00:35:40;;;;;;;8.95;4.75;;;;;;;6.16;58.09;96936.69;5032265;28;20049;-65
2021/04/24 00:38:06;;;;;;;10.98;4.97;;;;;;;6.17;58.32;96935.63;5031275;28;20053;-65
2021/04/24 00:40:33;;;;;;;11.35;5.03;;;;;;;6.16;58.48;96929.41;5032649;28;20128;-65
2021/04/24 00:42:59;;;;;;;11.77;5.35;;;;;;;6.14;58.79;96933.47;5031419;28;20050;-65
2021/04/24 00:45:25;;;;;;;16.65;5.65;;;;;;;6.13;59.20;96927.25;5032226;28;20121;-64
2021/04/24 00:47:53;;;;;;;10.32;5.13;;;;;;;6.14;58.16;96919.94;5031351;28;20041;-64
2021/04/24 00:50:26;;;;;;;10.02;4.85;;;;;;;6.13;58.10;96923.75;5031763;28;20087;-65
2021/04/24 00:52:52;;;;;;;10.43;4.53;;;;;;;6.10;57.62;96919.69;5031546;28;20455;-65
2021/04/24 00:55:18;;;;;;;8.75;4.57;;;;;;;6.05;57.57;96913.47;5031440;28;20045;-65
2021/04/24 00:57:46;;;;;;;9.82;4.45;;;;;;;5.99;58.28;96927.00;5032800;28;20060;-65
2021/04/24 01:00:14;;;;;;;11.30;5.43;;;;;;;5.95;58.64;96914.31;5031146;28;20099;-65
2021/04/24 01:02:41;;;;;;;8.00;4.57;;;;;;;5.90;59.23;96912.44;5031852;28;20061;-64
2021/04/24 01:05:09;;;;;;;10.48;4.72;;;;;;;5.85;59.17;96909.72;5030479;28;20053;-64
2021/04/24 01:07:35;;;;;;;10.38;4.85;;;;;;;5.79;59.87;96907.28;5032226;28;20057;-64
2021/04/24 01:10:03;;;;;;;13.68;5.50;;;;;;;5.76;59.84;96903.25;5030865;28;20115;-64
2021/04/24 01:12:29;;;;;;;13.88;4.70;;;;;;;5.72;59.21;96904.88;5031842;28;20045;-64
2021/04/24 01:14:56;;;;;;;13.93;4.90;;;;;;;5.65;59.56;96909.78;5030852;28;20527;-65
2021/04/24 01:17:22;;;;;;;13.23;4.40;;;;;;;5.58;59.55;96898.41;5030961;28;20673;-64
2021/04/24 01:19:48;;;;;;;11.52;5.00;;;;;;;5.54;59.74;96902.75;5031247;28;20056;-64
2021/04/24 01:22:15;;;;;;;10.95;5.00;;;;;;;5.51;60.84;96904.09;5030849;28;20050;-66
2021/04/24 01:24:41;;;;;;;9.77;4.95;;;;;;;5.48;60.52;96904.63;5032646;28;20474;-65
2021/04/24 01:27:07;;;;;;;11.07;5.10;;;;;;;5.44;60.68;96898.97;5030012;28;20058;-64
2021/04/24 01:29:35;;;;;;;11.95;4.68;;;;;;;5.42;61.04;96894.91;5031416;28;20452;-64
2021/04/24 01:32:02;;;;;;;12.70;5.00;;;;;;;5.41;61.26;96890.59;5029437;28;20421;-65
2021/04/24 01:34:28;;;;;;;8.63;4.55;;;;;;;5.35;61.25;96889.81;5031701;28;20050;-64
2021/04/24 01:36:56;;;;;;;10.38;4.63;;;;;;;5.32;61.06;96894.91;5030507;28;20646;-64
2021/04/24 01:39:23;;;;;;;10.10;4.60;;;;;;;5.24;60.86;96885.50;5030752;28;20053;-64
2021/04/24 01:41:49;;;;;;;12.73;4.70;;;;;;;5.18;60.38;96884.69;5030615;28;20045;-64
2021/04/24 01:44:15;;;;;;;8.82;4.43;;;;;;;5.17;60.54;96883.06;5030602;28;20187;-66
2021/04/24 01:46:42;;;;;;;9.35;4.82;;;;;;;5.17;61.04;96882.25;5030747;28;20528;-66
2021/04/24 01:49:08;;;;;;;10.73;4.35;;;;;;;5.16;60.71;96880.63;5030035;28;20041;-66
2021/04/24 01:51:34;;;;;;;10.15;4.50;;;;;;;5.12;60.08;96879.56;5030915;28;20496;-66
2021/04/24 01:54:01;;;;;;;8.07;4.25;;;;;;;5.08;59.64;96878.47;5029903;28;20072;-66
2021/04/24 01:56:41;;;;;;;8.57;4.18;;;;;;;4.97;59.81;96883.88;5033233;28;20428;-66
2021/04/24 01:59:07;;;;;;;9.50;4.15;;;;;;;4.91;59.76;96876.03;5029516;28;20045;-66
2021/04/24 02:01:33;;;;;;;10.95;4.97;;;;;;;4.86;59.90;96876.84;5031008;28;20057;-66
2021/04/24 02:03:59;;;;;;;9.27;4.68;;;;;;;4.83;59.87;96874.66;5030406;28;20072;-66
2021/04/24 02:06:25;;;;;;;9.77;4.30;;;;;;;4.85;60.07;96877.91;5030178;28;20041;-66
2021/04/24 02:08:51;;;;;;;10.50;4.43;;;;;;;4.84;60.15;96873.59;5030236;28;20515;-66
2021/04/24 02:11:17;;;;;;;13.02;4.47;;;;;;;4.84;60.51;96868.19;5030095;28;20046;-66
2021/04/24 02:13:44;;;;;;;11.95;4.60;;;;;;;4.85;61.21;96875.19;5030722;28;20053;-66
2021/04/24 02:16:13;;;;;;;15.73;4.45;;;;;;;4.88;61.48;96880.06;5030402;28;20099;-66
2021/04/24 02:18:39;;;;;;;8.57;4.28;;;;;;;4.87;61.73;96883.06;5030964;28;20056;-66
2021/04/24 02:21:06;;;;;;;9.27;4.18;;;;;;;4.87;60.76;96867.66;5029307;28;20053;-66
2021/04/24 02:23:33;;;;;;;10.05;4.20;;;;;;;4.87;60.50;96875.75;5030588;28;20056;-66
2021/04/24 02:25:59;;;;;;;10.73;4.43;;;;;;;4.87;60.40;96864.97;5032014;28;20046;-66
2021/04/24 02:28:25;;;;;;;10.40;4.07;;;;;;;4.86;60.01;96866.06;5029691;28;20041;-66
2021/04/24 02:30:52;;;;;;;7.60;4.40;;;;;;;4.81;60.53;96868.75;5030045;28;20522;-66
2021/04/24 02:33:18;;;;;;;10.68;3.90;;;;;;;4.78;60.88;96877.38;5029738;28;20053;-66
2021/04/24 02:35:48;;;;;;;7.68;4.13;;;;;;;4.73;60.61;96869.25;5030314;28;20049;-66
2021/04/24 02:38:16;;;;;;;12.93;4.53;;;;;;;4.66;61.03;96860.63;5029174;28;20042;-66
2021/04/24 02:40:43;;;;;;;8.90;4.07;;;;;;;4.59;61.29;96854.66;5030627;28;20051;-66
2021/04/24 02:43:09;;;;;;;10.23;4.68;;;;;;;4.48;61.58;96861.94;5029024;28;20111;-66
2021/04/24 02:45:35;;;;;;;8.00;3.92;;;;;;;4.40;61.55;96854.38;5034767;28;20042;-66
2021/04/24 02:48:03;;;;;;;7.40;3.67;;;;;;;4.32;61.08;96857.56;5033380;28;20487;-66
2021/04/24 02:50:29;;;;;;;9.05;3.65;;;;;;;4.29;61.29;96856.22;5033881;28;20045;-66
2021/04/24 02:52:55;;;;;;;6.43;3.78;;;;;;;4.30;61.35;96857.84;5033611;28;20377;-66
2021/04/24 02:55:21;;;;;;;8.00;3.65;;;;;;;4.24;61.39;96850.81;5035921;28;20107;-66
2021/04/24 02:57:47;;;;;;;8.88;4.13;;;;;;;4.22;61.58;96852.97;5033917;28;20052;-66
2021/04/24 03:00:17;;;;;;;6.70;3.40;;;;;;;4.23;61.48;96851.06;5033257;28;20049;-66
2021/04/24 03:02:43;;;;;;;8.15;3.55;;;;;;;4.24;61.33;96850.03;5034358;28;20115;-66
2021/04/24 03:05:13;;;;;;;7.30;3.90;;;;;;;4.19;61.45;96851.63;5032731;28;20049;-66
2021/04/24 03:07:39;;;;;;;10.50;3.80;;;;;;;4.16;61.55;96856.72;5034396;28;20049;-66
2021/04/24 03:10:08;;;;;;;7.93;3.83;;;;;;;4.16;61.44;96854.84;5032804;28;20049;-66
2021/04/24 03:12:34;;;;;;;8.07;3.22;;;;;;;4.13;61.42;96846.47;5034019;28;20053;-66
2021/04/24 03:15:00;;;;;;;13.65;4.53;;;;;;;4.10;61.71;96852.38;5033101;28;20045;-66
2021/04/24 03:17:26;;;;;;;9.02;3.30;;;;;;;4.06;61.71;96846.72;5033553;28;20062;-66
2021/04/24 03:19:52;;;;;;;7.97;3.78;;;;;;;4.06;61.70;96845.91;5033887;28;20054;-66
2021/04/24 03:22:19;;;;;;;6.47;3.60;;;;;;;4.08;61.79;96843.78;5033032;28;20077;-66
2021/04/24 03:24:44;;;;;;;8.40;3.33;;;;;;;4.11;62.53;96837.84;5036006;28;20049;-66
2021/04/24 03:27:10;;;;;;;6.10;3.63;;;;;;;4.11;62.11;96848.63;5032398;28;20049;-66
2021/04/24 03:29:36;;;;;;;8.13;3.58;;;;;;;4.06;61.71;96851.28;5033649;28;20049;-66
2021/04/24 03:32:03;;;;;;;9.38;3.67;;;;;;;4.00;61.53;96847.78;5032432;28;20049;-66
2021/04/24 03:34:29;;;;;;;6.53;3.60;;;;;;;3.98;61.55;96839.16;5034008;28;20054;-66
2021/04/24 03:36:55;;;;;;;7.82;3.45;;;;;;;3.95;61.62;96849.63;5032461;28;20149;-66
2021/04/24 03:39:22;;;;;;;7.88;4.32;;;;;;;3.90;61.87;96848.53;5033073;28;20140;-66
2021/04/24 03:41:48;;;;;;;6.28;3.92;;;;;;;3.89;62.03;96846.91;5032828;28;20406;-66
2021/04/24 03:44:13;;;;;;;7.38;3.55;;;;;;;3.89;62.03;96849.63;5032694;28;20049;-66
2021/04/24 03:46:39;;;;;;;8.90;3.90;;;;;;;3.91;61.98;96849.34;5033038;28;20076;-66
2021/04/24 03:49:05;;;;;;;7.25;3.58;;;;;;;3.91;62.00;96852.88;5032423;28;20298;-66
2021/04/24 03:51:31;;;;;;;7.97;3.83;;;;;;;3.92;62.00;96856.38;5033480;28;20076;-66
2021/04/24 03:53:57;;;;;;;5.80;3.55;;;;;;;3.90;61.87;96851.22;5032146;28;20056;-66
2021/04/24 03:56:24;;;;;;;8.57;4.10;;;;;;;3.91;61.79;96854.72;5034742;28;20584;-66
2021/04/24 03:58:50;;;;;;;10.45;3.40;;;;;;;3.91;62.05;96849.34;5032246;28;20049;-66
2021/04/24 04:01:16;;;;;;;8.80;3.67;;;;;;;3.89;62.15;96846.13;5033027;28;20132;-66
2021/04/24 04:03:42;;;;;;;8.35;3.90;;;;;;;3.89;62.14;96855.00;5032503;28;20056;-66
2021/04/24 04:06:08;;;;;;;8.23;3.63;;;;;;;3.88;62.13;96856.09;5033023;28;20048;-66
2021/04/24 04:08:35;;;;;;;9.00;3.65;;;;;;;3.85;62.02;96861.97;5033610;28;20053;-66
2021/04/24 04:11:01;;;;;;;8.07;3.80;;;;;;;3.82;62.60;96857.13;5032741;28;20052;-66
2021/04/24 04:13:28;;;;;;;9.20;4.25;;;;;;;3.86;62.54;96855.53;5032685;28;20041;-66
2021/04/24 04:15:54;;;;;;;7.40;3.92;;;;;;;3.85;62.94;96855.78;5032335;28;20050;-65
2021/04/24 04:18:21;;;;;;;7.32;3.70;;;;;;;3.83;62.99;96850.66;5032432;28;20108;-66
2021/04/24 04:20:49;;;;;;;9.55;4.38;;;;;;;3.82;62.64;96854.44;5033086;28;20095;-66
2021/04/24 04:23:16;;;;;;;7.22;3.53;;;;;;;3.84;62.41;96854.16;5033035;28;20052;-66
2021/04/24 04:25:43;;;;;;;11.07;3.92;;;;;;;3.80;62.42;96859.25;5034222;28;20054;-66
2021/04/24 04:28:11;;;;;;;7.53;3.85;;;;;;;3.79;62.62;96854.16;5031771;28;20416;-66
2021/04/24 04:30:39;;;;;;;12.80;3.60;;;;;;;3.73;62.70;96856.00;5031956;28;20042;-66
2021/04/24 04:33:06;;;;;;;9.77;4.78;;;;;;;3.67;62.90;96859.75;5031854;28;20061;-66
2021/04/24 04:35:33;;;;;;;11.68;5.22;;;;;;;3.68;63.07;96866.75;5032090;28;20057;-66
2021/04/24 04:37:59;;;;;;;13.02;6.22;;;;;;;3.65;63.28;96872.66;5031852;28;20046;-66
2021/04/24 04:40:25;;;;;;;17.33;7.07;;;;;;;3.66;63.28;96877.78;5032039;28;20048;-66
2021/04/24 04:42:51;;;;;;;19.90;8.57;;;;;;;3.70;63.68;96880.75;5031474;28;20053;-66
2021/04/24 04:45:19;;;;;;;26.33;10.25;;;;;;;3.69;63.41;96879.13;5031966;28;20519;-66
2021/04/24 04:47:46;;;;;;;26.45;11.65;;;;;;;3.67;63.49;96875.91;5031107;28;20052;-66
2021/04/24 04:50:15;;;;;;;31.60;13.43;;;;;;;3.68;63.11;96880.22;5031964;28;20042;-66
2021/04/24 04:52:41;;;;;;;30.40;13.52;;;;;;;3.72;63.05;96881.31;5031684;28;20048;-65
2021/04/24 04:55:09;;;;;;;26.52;11.35;;;;;;;3.77;63.15;96880.53;5033530;28;20049;-66
2021/04/24 04:57:35;;;;;;;23.83;9.70;;;;;;;3.78;63.51;96872.19;5031644;28;20500;-66
2021/04/24 05:00:03;;;;;;;18.40;8.55;;;;;;;3.82;63.69;96870.59;5032444;28;20080;-66
2021/04/24 05:02:29;;;;;;;19.45;6.88;;;;;;;3.83;63.02;96880.31;5031998;28;20061;-66
2021/04/24 05:04:56;;;;;;;10.55;5.47;;;;;;;3.84;62.30;96886.50;5031257;28;20062;-66
2021/04/24 05:07:22;;;;;;;11.85;4.95;;;;;;;3.83;62.22;96879.50;5030721;28;20080;-66
2021/04/24 05:09:48;;;;;;;11.15;5.15;;;;;;;3.86;62.67;96885.19;5030893;28;20501;-66
2021/04/24 05:12:14;;;;;;;10.65;4.70;;;;;;;3.89;62.33;96884.63;5031914;28;20046;-66
2021/04/24 05:14:40;;;;;;;9.65;4.63;;;;;;;3.96;62.61;96886.28;5030852;28;20582;-66
2021/04/24 05:17:06;;;;;;;16.05;4.75;;;;;;;4.03;61.91;96886.88;5031429;28;20250;-66
2021/04/24 05:19:32;;;;;;;11.63;5.32;;;;;;;4.09;61.97;96883.13;5031064;28;20505;-66
2021/04/24 05:21:59;;;;;;;11.00;4.70;;;;;;;4.16;62.01;96889.06;5031477;28;20500;-66
2021/04/24 05:24:25;;;;;;;11.27;4.85;;;;;;;4.26;60.98;96889.09;5032097;28;20080;-66
2021/04/24 05:26:51;;;;;;;10.00;4.60;;;;;;;4.35;61.56;96898.31;5031344;28;20056;-66
2021/04/24 05:29:17;;;;;;;11.63;4.88;;;;;;;4.45;62.41;96898.34;5031027;28;20049;-66
2021/04/24 05:31:43;;;;;;;12.32;5.28;;;;;;;4.57;61.53;96894.59;5030214;28;20080;-66
2021/04/24 05:34:10;;;;;;;15.00;6.07;;;;;;;4.67;61.36;96900.81;5031317;28;20103;-66
2021/04/24 05:36:36;;;;;;;13.60;5.00;;;;;;;4.76;61.35;96903.81;5030654;28;20103;-66
2021/04/24 05:39:04;;;;;;;13.20;4.70;;;;;;;4.81;61.65;96905.72;5031059;28;20408;-68
2021/04/24 05:41:30;;;;;;;11.23;5.60;;;;;;;4.89;61.98;96915.97;5030417;28;20088;-66
2021/04/24 05:43:57;;;;;;;9.60;5.15;;;;;;;4.92;62.66;96912.75;5030961;28;20454;-66
2021/04/24 05:46:25;;;;;;;8.60;4.82;;;;;;;4.95;62.88;96918.41;5029991;28;20045;-66
2021/04/24 05:48:52;;;;;;;11.60;5.70;;;;;;;5.02;63.08;96922.75;5030691;28;20041;-65
2021/04/24 05:51:19;;;;;;;11.48;5.28;;;;;;;5.10;62.68;96919.50;5030516;28;20041;-66
2021/04/24 05:53:46;;;;;;;12.95;5.85;;;;;;;5.17;62.15;96920.06;5031372;28;20050;-66
2021/04/24 05:56:13;;;;;;;11.75;5.75;;;;;;;5.26;62.16;96910.31;5033208;28;20064;-66
2021/04/24 05:58:38;;;;;;;11.63;5.78;;;;;;;5.34;62.16;96920.59;5031245;28;20045;-66
2021/04/24 06:01:05;;;;;;;15.60;6.10;;;;;;;5.42;61.80;96922.72;5030826;28;20115;-66
2021/04/24 06:03:31;;;;;;;12.02;5.80;;;;;;;5.49;62.67;96911.69;5030114;28;20041;-66
2021/04/24 06:05:57;;;;;;;10.20;5.18;;;;;;;5.54;62.91;96921.66;5030667;28;20129;-66
2021/04/24 06:08:23;;;;;;;11.82;5.55;;;;;;;5.64;62.78;96924.38;5029429;28;20095;-66
2021/04/24 06:10:49;;;;;;;12.75;6.25;;;;;;;5.73;62.60;96920.00;5030635;28;20144;-66
2021/04/24 06:13:16;;;;;;;12.35;5.43;;;;;;;5.83;62.23;96925.41;5029698;28;20037;-66
2021/04/24 06:15:42;;;;;;;14.15;5.10;;;;;;;5.93;61.18;96920.00;5030284;28;20052;-66
2021/04/24 06:18:08;;;;;;;12.68;5.60;;;;;;;6.01;60.51;96924.84;5029726;28;20045;-66
2021/04/24 06:20:34;;;;;;;13.60;5.50;;;;;;;6.12;61.10;96925.63;5029833;28;20508;-76
2021/04/24 06:23:00;;;;;;;9.25;4.78;;;;;;;6.19;60.53;96926.13;5048772;28;20057;-71
2021/04/24 06:25:27;;;;;;;12.52;5.07;;;;;;;6.21;60.33;96917.75;5046123;28;20730;-70
2021/04/24 06:27:53;;;;;;;11.40;5.50;;;;;;;6.32;60.55;96921.22;5047771;28;20075;-70
2021/04/24 06:30:21;;;;;;;11.80;4.45;;;;;;;6.47;59.99;96918.44;5046300;28;20045;-70
2021/04/24 06:32:50;;;;;;;17.23;5.03;;;;;;;6.64;59.55;96920.81;5047244;28;20052;-70
2021/04/24 06:35:17;;;;;;;15.00;5.63;;;;;;;6.76;59.76;96918.59;5046303;28;20462;-70
2021/04/24 06:37:43;;;;;;;11.88;5.22;;;;;;;6.92;58.98;96917.41;5047415;28;20065;-69
2021/04/24 06:40:13;;;;;;;12.98;5.38;;;;;;;7.05;58.98;96921.41;5047022;28;20064;-70
2021/04/24 06:42:39;;;;;;;17.70;5.35;;;;;;;7.20;58.05;96912.31;5046886;28;20053;-70
2021/04/24 06:45:07;;;;;;;14.63;4.85;;;;;;;7.35;57.57;96912.22;5047194;28;20049;-69
2021/04/24 06:47:35;;;;;;;18.15;5.45;;;;;;;7.54;56.42;96910.44;5046645;28;20055;-70
2021/04/24 06:50:01;;;;;;;12.75;5.20;;;;;;;7.66;55.54;96915.47;5047083;28;20530;-70
2021/04/24 06:52:28;;;;;;;15.32;5.65;;;;;;;7.82;56.83;96913.41;5046673;28;20045;-70
2021/04/24 06:54:54;;;;;;;14.82;5.35;;;;;;;7.97;55.12;96915.16;5044069;28;20058;-67
2021/04/24 06:57:20;;;;;;;8.75;4.65;;;;;;;8.06;54.25;96908.03;5026455;28;20046;-70
2021/04/24 06:59:46;;;;;;;10.57;5.20;;;;;;;8.23;53.90;96907.56;5026893;28;20080;-68
2021/04/24 07:02:13;;;;;;;13.35;5.40;;;;;;;8.38;53.88;96910.13;5026693;28;20049;-68
2021/04/24 07:04:40;;;;;;;10.95;4.60;;;;;;;8.51;51.13;96903.16;5026417;28;20068;-67
2021/04/24 07:07:07;;;;;;;10.30;5.03;;;;;;;8.70;50.23;96900.50;5026668;28;20099;-68
2021/04/24 07:09:34;;;;;;;11.32;4.80;;;;;;;8.88;48.39;96897.78;5026731;28;20127;-68
2021/04/24 07:11:59;;;;;;;14.40;4.70;;;;;;;9.02;48.57;96897.84;5027331;28;20060;-68
2021/04/24 07:14:25;;;;;;;10.43;4.78;;;;;;;9.17;48.17;96904.16;5025943;28;20692;-68
2021/04/24 07:16:51;;;;;;;9.57;4.55;;;;;;;9.33;48.39;96900.09;5027029;28;20061;-68
2021/04/24 07:19:17;;;;;;;9.70;5.05;;;;;;;9.54;48.31;96898.66;5026355;28;20053;-68
2021/04/24 07:21:44;;;;;;;8.68;4.93;;;;;;;9.65;47.56;96891.94;5027698;28;20053;-68
2021/04/24 07:24:14;;;;;;;8.52;4.53;;;;;;;9.87;46.75;96890.50;5026716;28;20125;-69
2021/04/24 07:26:41;;;;;;;10.32;4.72;;;;;;;10.02;46.97;96887.47;5027140;28;20057;-68
2021/04/24 07:29:07;;;;;;;9.50;5.18;;;;;;;10.25;45.82;96896.59;5026496;28;20049;-69
2021/04/24 07:31:34;;;;;;;10.38;5.07;;;;;;;10.47;46.44;96893.16;5028680;28;20411;-69
2021/04/24 07:34:00;;;;;;;10.23;5.35;;;;;;;10.70;46.45;96892.13;5030563;28;20076;-68
2021/04/24 07:36:26;;;;;;;14.77;5.03;;;;;;;10.91;43.26;96897.94;5029590;28;20454;-68
2021/04/24 07:38:53;;;;;;;13.82;5.15;;;;;;;11.26;42.86;96890.03;5031266;28;20052;-68
2021/04/24 07:41:19;;;;;;;10.20;4.78;;;;;;;12.36;42.74;96892.13;5030566;28;20049;-68
2021/04/24 07:43:45;;;;;;;10.23;5.05;;;;;;;13.22;40.45;96880.56;5030815;28;20080;-68
2021/04/24 07:46:11;;;;;;;12.15;5.05;;;;;;;13.98;41.58;96884.63;5029484;28;20504;-68
2021/04/24 07:48:37;;;;;;;10.20;5.18;;;;;;;14.72;35.38;96880.63;5030394;28;20053;-70
2021/04/24 07:51:04;;;;;;;13.68;5.30;;;;;;;15.48;35.03;96869.41;5029424;28;20411;-70
2021/04/24 07:53:30;;;;;;;9.40;4.63;;;;;;;16.70;34.17;96874.31;5029813;28;20054;-69
2021/04/24 07:55:57;;;;;;;11.65;5.25;;;;;;;17.68;32.10;96868.59;5032639;28;20381;-68
2021/04/24 07:58:23;;;;;;;7.78;4.63;;;;;;;18.46;30.58;96867.91;5028702;28;20061;-68
2021/04/24 08:00:49;;;;;;;7.38;4.93;;;;;;;18.44;30.00;96870.22;5030433;28;20061;-70
2021/04/24 08:03:15;;;;;;;11.80;5.15;;;;;;;18.65;29.87;96872.72;5028504;28;20049;-70
2021/04/24 08:05:40;;;;;;;10.20;5.50;;;;;;;19.20;31.29;96870.03;5030509;28;20827;-70
2021/04/24 08:08:06;;;;;;;10.65;5.63;;;;;;;19.76;28.04;96866.88;5028828;28;20053;-69
2021/04/24 08:10:32;;;;;;;14.32;5.45;;;;;;;20.01;26.58;96864.59;5029834;28;20439;-69
2021/04/24 08:13:02;;;;;;;10.65;5.70;;;;;;;20.18;27.90;96868.81;5029508;28;20063;-68
2021/04/24 08:15:29;;;;;;;10.82;5.57;;;;;;;20.64;27.40;96875.19;5029644;28;20049;-68
2021/04/24 08:17:55;;;;;;;11.30;5.35;;;;;;;20.93;26.75;96868.09;5029661;28;20053;-69
2021/04/24 08:20:22;;;;;;;9.55;5.03;;;;;;;21.47;25.70;96872.44;5028872;28;20474;-69
2021/04/24 08:22:48;;;;;;;9.05;5.07;;;;;;;21.77;24.84;96868.81;5029474;28;20049;-69
2021/04/24 08:25:15;;;;;;;10.18;5.30;;;;;;;22.35;25.19;96859.97;5031000;28;20049;-69
2021/04/24 08:27:42;;;;;;;10.73;5.28;;;;;;;22.83;23.58;96868.28;5031983;28;20060;-69
2021/04/24 08:30:13;;;;;;;10.32;5.03;;;;;;;23.20;23.70;96859.03;5031422;28;20054;-69
2021/04/24 08:32:39;;;;;;;18.23;5.78;;;;;;;23.50;23.53;96862.38;5033078;28;20053;-69
2021/04/24 08:35:06;;;;;;;10.00;5.40;;;;;;;23.23;21.96;96861.03;5031539;28;20067;-69
2021/04/24 08:37:32;;;;;;;12.45;5.50;;;;;;;22.74;24.49;96859.50;5031730;28;20046;-69
2021/04/24 08:40:00;;;;;;;10.27;5.00;;;;;;;22.95;22.68;96856.91;5032418;28;20103;-70
2021/04/24 08:42:26;;;;;;;12.30;5.38;;;;;;;23.13;23.31;96860.59;5030614;28;20882;-69
2021/04/24 08:44:52;;;;;;;16.30;5.90;;;;;;;23.42;21.75;96860.72;5032266;28;20053;-70
2021/04/24 08:47:21;;;;;;;10.43;5.60;;;;;;;23.57;23.51;96851.28;5031150;28;20408;-69
2021/04/24 08:49:50;;;;;;;11.43;5.20;;;;;;;24.10;21.55;96859.00;5032520;28;20504;-69
2021/04/24 08:52:19;;;;;;;10.10;5.57;;;;;;;24.38;22.04;96851.91;5030947;28;20100;-69
2021/04/24 08:54:45;;;;;;;12.93;5.72;;;;;;;24.91;20.65;96851.13;5034924;28;20045;-69
2021/04/24 08:57:11;;;;;;;10.00;5.35;;;;;;;25.08;18.82;96864.25;5031333;28;20529;-69
2021/04/24 08:59:37;;;;;;;12.45;5.22;;;;;;;25.27;19.50;96860.25;5032054;28;20403;-69
2021/04/24 09:02:04;;;;;;;10.27;5.72;;;;;;;25.26;18.68;96858.63;5031201;28;20052;-70
2021/04/24 09:04:30;;;;;;;13.45;5.68;;;;;;;25.23;19.25;96851.09;5031628;28;20512;-69
2021/04/24 09:06:57;;;;;;;11.65;5.07;;;;;;;25.42;17.45;96856.22;5031849;28;20050;-69
2021/04/24 09:09:27;;;;;;;10.50;5.88;;;;;;;25.28;17.58;96855.47;5030812;28;20150;-69
2021/04/24 09:11:56;;;;;;;12.02;5.78;;;;;;;25.47;18.41;96847.41;5032032;28;20049;-69
2021/04/24 09:14:26;;;;;;;11.38;5.32;;;;;;;25.47;18.84;96852.19;5030448;28;20037;-69
2021/04/24 09:16:53;;;;;;;11.18;5.55;;;;;;;25.87;19.52;96838.94;5032054;28;20134;-69
2021/04/24 09:19:30;;;;;;;8.70;5.15;;;;;;;26.41;17.23;96831.78;5030559;28;20424;-69
2021/04/24 09:22:15;;;;;;;10.27;5.50;;;;;;;26.58;18.81;96835.69;5031608;28;20095;-70
2021/04/24 09:24:43;;;;;;;13.00;5.90;;;;;;;26.65;16.46;96824.44;5033852;28;20064;-70
2021/04/24 09:27:09;;;;;;;8.55;4.82;;;;;;;26.86;18.74;96829.06;5030405;28;20050;-70
2021/04/24 09:29:35;;;;;;;10.63;5.18;;;;;;;26.93;16.84;96828.19;5031486;28;20058;-70
2021/04/24 09:32:18;;;;;;;12.65;6.07;;;;;;;26.93;18.45;96822.59;5030211;28;20046;-69
2021/04/24 09:34:47;;;;;;;11.05;5.75;;;;;;;26.68;18.69;96817.25;5032150;28;20102;-69
2021/04/24 09:37:16;;;;;;;11.52;5.45;;;;;;;26.71;17.44;96820.00;5030283;28;20499;-69
2021/04/24 09:39:47;;;;;;;10.10;5.05;;;;;;;26.44;17.51;96802.28;5031336;28;20049;-70
2021/04/24 09:42:34;;;;;;;9.82;6.20;;;;;;;25.35;15.94;96814.41;5030497;28;20072;-70
2021/04/24 09:45:01;;;;;;;10.50;5.80;;;;;;;24.68;18.77;96815.34;5030339;28;20041;-70
2021/04/24 09:47:43;;;;;;;14.52;5.95;;;;;;;24.57;18.98;96811.75;5031101;28;20038;-69
2021/04/24 09:50:15;;;;;;;11.13;5.38;;;;;;;24.34;19.54;96809.38;5028297;28;20049;-69
2021/04/24 09:52:42;;;;;;;14.40;6.18;;;;;;;24.17;20.36;96811.75;5031478;28;20124;-70
2021/04/24 09:55:14;;;;;;;12.35;5.70;;;;;;;23.77;18.72;96810.06;5031842;28;20100;-69
2021/04/24 09:57:40;;;;;;;11.25;5.50;;;;;;;23.58;21.63;96807.59;5030834;28;20049;-71
2021/04/24 10:00:08;;;;;;;12.05;6.13;;;;;;;23.36;19.02;96795.59;5030282;28;20049;-69
2021/04/24 10:02:35;;;;;;;14.27;6.00;;;;;;;23.00;20.59;96795.44;5031145;28;20049;-69
2021/04/24 10:05:10;;;;;;;12.55;5.72;;;;;;;23.16;22.25;96787.56;5031013;28;20041;-69
2021/04/24 10:07:37;;;;;;;12.23;5.75;;;;;;;23.25;20.11;96789.22;5030118;28;20519;-69
2021/04/24 10:10:07;;;;;;;14.52;5.80;;;;;;;23.18;19.77;96785.22;5030968;28;20072;-69
2021/04/24 10:12:34;;;;;;;12.10;6.40;;;;;;;23.06;22.35;96788.31;5029956;28;20140;-70
2021/04/24 10:15:00;;;;;;;11.85;5.90;;;;;;;22.85;18.81;96782.63;5030989;28;20049;-69
2021/04/24 10:17:28;;;;;;;13.13;5.65;;;;;;;22.69;21.29;96779.34;5029546;28;20052;-69
2021/04/24 10:19:54;;;;;;;13.15;6.32;;;;;;;22.77;22.96;96776.22;5030635;28;20052;-69
2021/04/24 10:22:23;;;;;;;15.93;6.15;;;;;;;22.89;21.37;96772.34;5029849;28;20045;-71
2021/04/24 10:24:49;;;;;;;9.90;5.47;;;;;;;22.97;19.93;96778.72;5032412;28;20443;-69
2021/04/24 10:27:19;;;;;;;11.75;5.82;;;;;;;22.97;20.41;96774.00;5029669;28;20056;-70
2021/04/24 10:29:47;;;;;;;10.45;6.30;;;;;;;22.64;18.68;96772.16;5029599;28;20064;-70
2021/04/24 10:32:14;;;;;;;15.65;7.10;;;;;;;22.29;19.85;96764.38;5030529;28;20053;-70
2021/04/24 10:34:40;;;;;;;10.48;5.82;;;;;;;22.12;21.52;96769.41;5029809;28;20057;-70
2021/04/24 10:37:07;;;;;;;12.70;6.60;;;;;;;21.91;19.68;96760.88;5030497;28;20053;-70
2021/04/24 10:39:34;;;;;;;13.18;6.10;;;;;;;21.68;21.98;96765.81;5030030;28;20053;-70
2021/04/24 10:42:05;;;;;;;8.70;5.57;;;;;;;21.78;20.14;96763.13;5030630;28;20041;-71
2021/04/24 10:44:47;;;;;;;9.20;5.75;;;;;;;21.80;22.96;96757.19;5030107;28;20067;-71
2021/04/24 10:47:14;;;;;;;11.32;6.18;;;;;;;21.66;20.42;96762.59;5030250;28;20045;-70
2021/04/24 10:49:53;;;;;;;11.32;6.40;;;;;;;21.48;20.62;96757.66;5030472;28;20045;-70
2021/04/24 10:52:21;;;;;;;11.73;5.78;;;;;;;21.33;21.04;96756.72;5028976;28;20045;-71
2021/04/24 10:55:21;;;;;;;12.93;6.78;;;;;;;21.21;21.97;96761.69;5033136;28;20385;-70
2021/04/24 10:57:49;;;;;;;11.23;5.95;;;;;;;21.49;22.38;96770.34;5020805;28;20045;-71
2021/04/24 11:00:17;;;;;;;8.57;5.80;;;;;;;21.56;21.86;96758.53;5029597;28;20653;-70
2021/04/24 11:02:45;;;;;;;10.65;6.40;;;;;;;21.23;19.09;96753.78;5030043;28;20045;-70
2021/04/24 11:05:22;;;;;;;10.60;6.13;;;;;;;21.15;20.28;96755.69;5030990;28;20492;-70
2021/04/24 11:07:48;;;;;;;11.68;5.90;;;;;;;21.23;20.90;96756.56;5033047;28;20455;-70
2021/04/24 11:10:25;;;;;;;12.00;6.38;;;;;;;21.42;20.68;96742.56;5032744;28;20046;-70
2021/04/24 11:12:52;;;;;;;15.38;6.70;;;;;;;21.14;19.87;96753.28;5034623;28;20052;-71
2021/04/24 11:15:21;;;;;;;14.93;6.30;;;;;;;21.18;21.18;96752.16;5034008;28;20116;-70
2021/04/24 11:17:48;;;;;;;11.75;6.32;;;;;;;21.00;20.25;96738.09;5033942;28;20416;-70
2021/04/24 11:20:48;;;;;;;12.90;6.72;;;;;;;20.92;21.00;96738.38;5033336;28;20045;-70
2021/04/24 11:23:48;;;;;;;11.50;6.28;;;;;;;21.01;21.02;96736.91;5032856;28;20049;-70
2021/04/24 11:26:23;;;;;;;10.45;6.43;;;;;;;21.20;21.31;96735.16;5024574;28;20041;-70
2021/04/24 11:29:07;;;;;;;10.90;5.88;;;;;;;21.46;22.00;96726.00;5033256;28;20053;-70
2021/04/24 11:32:02;;;;;;;10.25;6.10;;;;;;;21.78;22.86;96729.06;5033335;28;20046;-70
2021/04/24 11:34:37;;;;;;;10.18;6.20;;;;;;;22.15;22.09;96723.47;5033532;28;20052;-70